RU-0421 weather

Otradnaya Airport
Otradnaya, Krasnodar Krai, Russia

Public forecast

Using degrees Celsius for public forecast. Weather courtesy of forecast.io.

Closest aviation weather report (METAR) to Otradnaya Airport

Closest report is Stavropol Shpakovskoye Airport, 51.1 nm (94.5 km) NNE. Retrieved 2020/07/08 09:30 UTC (17 minutes ago):

URMT 080930Z 32008MPS CAVOK 30/16 Q1007 R25/010070 TEMPO 1000 TSRA BKN003 BKN020CB RMK QFE716

Closest aviation forecast (TAF) to Otradnaya Airport

Forecast is more than 12 hours old.

Closest forecast is Stavropol Shpakovskoye Airport, 51.1 nm (94.5 km) NNE. Retrieved 2019/08/03 03:15 UTC (11 months ago):

TAF URMT 030200Z 0303/0321 31005G12MPS 9999 SCT020